Terminal Aerodrome Forecast
Issued by NWS Mt. Holly, NJ

Home | Current Version | Previous Version | Text Only | Print | Product List | Glossary On
Versions: 1 2 3 4 5 6 7 8 9 10 11 12 13 14 15
000
FTUS41 KPHI 041729
TAFILG
TAF
KILG 041729Z 0418/0518 30008KT P6SM FEW040 OVC250
     FM042300 VRB02KT P6SM BKN040 OVC120
     FM050600 15005KT 5SM -RA SCT015 OVC025
     FM051000 VRB05KT 3SM -RA BR BKN009 OVC015
     FM051600 29009KT P6SM SCT015 OVC025=

USA.gov is the U.S. government's official web portal to all federal, state and local government web resources and services.